sensor_id;sensor_type;location;lat;lon;timestamp;P1;durP1;ratioP1;P2;durP2;ratioP2
59042;SDS011;44826;51.596;5.624;2022-10-10T00:02:05;5.88;;;3.45;;
59042;SDS011;44826;51.596;5.624;2022-10-10T00:04:31;5.93;;;3.58;;
59042;SDS011;44826;51.596;5.624;2022-10-10T00:06:56;6.07;;;3.70;;
59042;SDS011;44826;51.596;5.624;2022-10-10T00:09:21;5.72;;;3.50;;
59042;SDS011;44826;51.596;5.624;2022-10-10T00:11:46;6.38;;;3.70;;
59042;SDS011;44826;51.596;5.624;2022-10-10T00:14:12;5.47;;;3.63;;
59042;SDS011;44826;51.596;5.624;2022-10-10T00:16:37;5.43;;;3.60;;
59042;SDS011;44826;51.596;5.624;2022-10-10T00:19:02;6.85;;;3.90;;
59042;SDS011;44826;51.596;5.624;2022-10-10T00:21:28;10.68;;;3.83;;
59042;SDS011;44826;51.596;5.624;2022-10-10T00:23:53;5.40;;;3.38;;
59042;SDS011;44826;51.596;5.624;2022-10-10T00:26:18;5.93;;;3.70;;
59042;SDS011;44826;51.596;5.624;2022-10-10T00:28:44;6.32;;;3.67;;
59042;SDS011;44826;51.596;5.624;2022-10-10T00:31:09;6.72;;;3.83;;
59042;SDS011;44826;51.596;5.624;2022-10-10T00:33:35;7.63;;;3.92;;
59042;SDS011;44826;51.596;5.624;2022-10-10T00:36:00;4.85;;;3.50;;
59042;SDS011;44826;51.596;5.624;2022-10-10T00:38:26;4.82;;;3.38;;
59042;SDS011;44826;51.596;5.624;2022-10-10T00:40:52;4.82;;;3.42;;
59042;SDS011;44826;51.596;5.624;2022-10-10T00:43:20;6.00;;;3.65;;
59042;SDS011;44826;51.596;5.624;2022-10-10T00:45:47;5.45;;;3.78;;
59042;SDS011;44826;51.596;5.624;2022-10-10T00:48:17;5.13;;;3.45;;
59042;SDS011;44826;51.596;5.624;2022-10-10T00:51:08;6.03;;;3.30;;
59042;SDS011;44826;51.596;5.624;2022-10-10T00:53:40;5.63;;;3.58;;
59042;SDS011;44826;51.596;5.624;2022-10-10T00:56:08;4.80;;;3.47;;
59042;SDS011;44826;51.596;5.624;2022-10-10T00:58:36;8.77;;;3.80;;
59042;SDS011;44826;51.596;5.624;2022-10-10T01:01:04;6.22;;;3.67;;
59042;SDS011;44826;51.596;5.624;2022-10-10T01:03:30;5.40;;;3.70;;
59042;SDS011;44826;51.596;5.624;2022-10-10T01:05:56;6.18;;;3.90;;
59042;SDS011;44826;51.596;5.624;2022-10-10T01:08:21;8.07;;;3.83;;
59042;SDS011;44826;51.596;5.624;2022-10-10T01:10:58;5.70;;;3.58;;
59042;SDS011;44826;51.596;5.624;2022-10-10T01:13:38;6.43;;;3.90;;
59042;SDS011;44826;51.596;5.624;2022-10-10T01:16:18;5.70;;;3.67;;
59042;SDS011;44826;51.596;5.624;2022-10-10T01:24:17;5.20;;;3.72;;
59042;SDS011;44826;51.596;5.624;2022-10-10T01:30:16;7.80;;;3.90;;
59042;SDS011;44826;51.596;5.624;2022-10-10T01:35:48;6.90;;;3.95;;
59042;SDS011;44826;51.596;5.624;2022-10-10T01:41:02;7.18;;;3.90;;
59042;SDS011;44826;51.596;5.624;2022-10-10T01:43:37;7.28;;;3.67;;
59042;SDS011;44826;51.596;5.624;2022-10-10T01:46:10;7.18;;;3.97;;
59042;SDS011;44826;51.596;5.624;2022-10-10T01:48:40;7.78;;;3.80;;
59042;SDS011;44826;51.596;5.624;2022-10-10T02:00:01;5.53;;;3.83;;
59042;SDS011;44826;51.596;5.624;2022-10-10T02:02:41;6.00;;;3.92;;
59042;SDS011;44826;51.596;5.624;2022-10-10T02:08:11;5.70;;;3.88;;
59042;SDS011;44826;51.596;5.624;2022-10-10T02:10:45;6.63;;;3.90;;
59042;SDS011;44826;51.596;5.624;2022-10-10T02:13:13;6.07;;;4.07;;
59042;SDS011;44826;51.596;5.624;2022-10-10T02:15:41;5.22;;;3.53;;
59042;SDS011;44826;51.596;5.624;2022-10-10T02:18:11;9.60;;;4.05;;
59042;SDS011;44826;51.596;5.624;2022-10-10T02:20:39;6.15;;;4.35;;
59042;SDS011;44826;51.596;5.624;2022-10-10T02:23:08;6.45;;;4.03;;
59042;SDS011;44826;51.596;5.624;2022-10-10T02:25:38;6.55;;;4.40;;
59042;SDS011;44826;51.596;5.624;2022-10-10T02:30:43;7.70;;;3.85;;
59042;SDS011;44826;51.596;5.624;2022-10-10T02:33:11;7.25;;;4.25;;
59042;SDS011;44826;51.596;5.624;2022-10-10T02:35:41;6.47;;;4.18;;
59042;SDS011;44826;51.596;5.624;2022-10-10T02:38:10;7.30;;;4.22;;
59042;SDS011;44826;51.596;5.624;2022-10-10T02:40:38;7.30;;;4.43;;
59042;SDS011;44826;51.596;5.624;2022-10-10T02:43:05;8.60;;;4.65;;
59042;SDS011;44826;51.596;5.624;2022-10-10T02:45:32;6.85;;;4.30;;
59042;SDS011;44826;51.596;5.624;2022-10-10T02:48:01;7.07;;;4.60;;
59042;SDS011;44826;51.596;5.624;2022-10-10T02:50:27;5.88;;;4.20;;
59042;SDS011;44826;51.596;5.624;2022-10-10T02:52:54;6.68;;;4.38;;
59042;SDS011;44826;51.596;5.624;2022-10-10T02:55:20;7.53;;;4.72;;
59042;SDS011;44826;51.596;5.624;2022-10-10T02:57:45;6.40;;;4.25;;
59042;SDS011;44826;51.596;5.624;2022-10-10T03:00:11;7.00;;;4.50;;
59042;SDS011;44826;51.596;5.624;2022-10-10T03:02:36;7.82;;;4.50;;
59042;SDS011;44826;51.596;5.624;2022-10-10T03:05:02;7.95;;;4.82;;
59042;SDS011;44826;51.596;5.624;2022-10-10T03:07:27;6.60;;;4.47;;
59042;SDS011;44826;51.596;5.624;2022-10-10T03:09:53;6.78;;;4.55;;
59042;SDS011;44826;51.596;5.624;2022-10-10T03:12:18;7.15;;;4.47;;
59042;SDS011;44826;51.596;5.624;2022-10-10T03:14:43;7.03;;;4.60;;
59042;SDS011;44826;51.596;5.624;2022-10-10T03:17:08;6.65;;;4.40;;
59042;SDS011;44826;51.596;5.624;2022-10-10T03:19:34;10.05;;;4.68;;
59042;SDS011;44826;51.596;5.624;2022-10-10T03:21:59;7.82;;;4.57;;
59042;SDS011;44826;51.596;5.624;2022-10-10T03:24:24;7.30;;;4.57;;
59042;SDS011;44826;51.596;5.624;2022-10-10T03:26:50;5.78;;;4.43;;
59042;SDS011;44826;51.596;5.624;2022-10-10T03:29:15;7.07;;;4.80;;
59042;SDS011;44826;51.596;5.624;2022-10-10T03:31:41;7.78;;;4.68;;
59042;SDS011;44826;51.596;5.624;2022-10-10T03:34:07;6.45;;;4.18;;
59042;SDS011;44826;51.596;5.624;2022-10-10T03:36:32;6.60;;;4.10;;
59042;SDS011;44826;51.596;5.624;2022-10-10T03:38:57;6.28;;;4.40;;
59042;SDS011;44826;51.596;5.624;2022-10-10T03:41:22;6.15;;;3.97;;
59042;SDS011;44826;51.596;5.624;2022-10-10T03:43:48;7.60;;;4.60;;
59042;SDS011;44826;51.596;5.624;2022-10-10T03:46:13;7.97;;;4.28;;
59042;SDS011;44826;51.596;5.624;2022-10-10T03:48:38;7.60;;;4.45;;
59042;SDS011;44826;51.596;5.624;2022-10-10T03:51:04;8.13;;;4.13;;
59042;SDS011;44826;51.596;5.624;2022-10-10T03:53:30;5.75;;;4.15;;
59042;SDS011;44826;51.596;5.624;2022-10-10T03:55:55;7.07;;;4.10;;
59042;SDS011;44826;51.596;5.624;2022-10-10T03:58:21;7.80;;;4.40;;
59042;SDS011;44826;51.596;5.624;2022-10-10T04:00:56;7.57;;;4.35;;
59042;SDS011;44826;51.596;5.624;2022-10-10T04:03:23;6.63;;;4.00;;
59042;SDS011;44826;51.596;5.624;2022-10-10T04:05:49;8.10;;;4.32;;
59042;SDS011;44826;51.596;5.624;2022-10-10T04:08:14;6.57;;;4.45;;
59042;SDS011;44826;51.596;5.624;2022-10-10T04:10:40;6.53;;;4.32;;
59042;SDS011;44826;51.596;5.624;2022-10-10T04:13:05;6.95;;;4.03;;
59042;SDS011;44826;51.596;5.624;2022-10-10T04:15:30;6.95;;;4.25;;
59042;SDS011;44826;51.596;5.624;2022-10-10T04:17:56;7.03;;;4.20;;
59042;SDS011;44826;51.596;5.624;2022-10-10T04:20:22;6.07;;;4.07;;
59042;SDS011;44826;51.596;5.624;2022-10-10T04:22:48;6.93;;;4.07;;
59042;SDS011;44826;51.596;5.624;2022-10-10T04:25:13;10.32;;;4.47;;
59042;SDS011;44826;51.596;5.624;2022-10-10T04:27:38;6.25;;;3.90;;
59042;SDS011;44826;51.596;5.624;2022-10-10T04:30:04;10.98;;;4.30;;
59042;SDS011;44826;51.596;5.624;2022-10-10T04:32:30;5.15;;;4.10;;
59042;SDS011;44826;51.596;5.624;2022-10-10T04:34:55;8.38;;;4.28;;
59042;SDS011;44826;51.596;5.624;2022-10-10T04:37:20;6.47;;;3.97;;
59042;SDS011;44826;51.596;5.624;2022-10-10T04:39:46;6.53;;;3.85;;
59042;SDS011;44826;51.596;5.624;2022-10-10T04:42:11;6.57;;;3.63;;
59042;SDS011;44826;51.596;5.624;2022-10-10T04:44:36;7.28;;;4.07;;
59042;SDS011;44826;51.596;5.624;2022-10-10T04:47:02;7.30;;;3.97;;
59042;SDS011;44826;51.596;5.624;2022-10-10T04:49:28;6.45;;;3.78;;
59042;SDS011;44826;51.596;5.624;2022-10-10T04:51:53;6.05;;;3.83;;
59042;SDS011;44826;51.596;5.624;2022-10-10T04:54:19;8.38;;;4.03;;
59042;SDS011;44826;51.596;5.624;2022-10-10T04:56:44;6.25;;;3.92;;
59042;SDS011;44826;51.596;5.624;2022-10-10T04:59:10;5.93;;;3.88;;
59042;SDS011;44826;51.596;5.624;2022-10-10T05:01:35;6.53;;;4.38;;
59042;SDS011;44826;51.596;5.624;2022-10-10T05:04:00;7.15;;;3.70;;
59042;SDS011;44826;51.596;5.624;2022-10-10T05:06:26;6.85;;;4.18;;
59042;SDS011;44826;51.596;5.624;2022-10-10T05:08:51;5.78;;;3.40;;
59042;SDS011;44826;51.596;5.624;2022-10-10T05:11:16;6.88;;;3.75;;
59042;SDS011;44826;51.596;5.624;2022-10-10T05:13:42;6.70;;;3.92;;
59042;SDS011;44826;51.596;5.624;2022-10-10T05:16:07;5.30;;;3.60;;
59042;SDS011;44826;51.596;5.624;2022-10-10T05:18:32;5.32;;;3.65;;
59042;SDS011;44826;51.596;5.624;2022-10-10T05:21:01;7.65;;;4.10;;
59042;SDS011;44826;51.596;5.624;2022-10-10T05:23:27;6.50;;;3.55;;
59042;SDS011;44826;51.596;5.624;2022-10-10T05:25:52;6.13;;;4.03;;
59042;SDS011;44826;51.596;5.624;2022-10-10T05:28:17;5.28;;;3.80;;
59042;SDS011;44826;51.596;5.624;2022-10-10T05:30:42;6.78;;;3.50;;
59042;SDS011;44826;51.596;5.624;2022-10-10T05:33:08;7.65;;;3.70;;
59042;SDS011;44826;51.596;5.624;2022-10-10T05:35:33;6.70;;;3.53;;
59042;SDS011;44826;51.596;5.624;2022-10-10T05:37:58;5.35;;;3.65;;
59042;SDS011;44826;51.596;5.624;2022-10-10T05:40:24;7.20;;;3.80;;
59042;SDS011;44826;51.596;5.624;2022-10-10T05:42:49;6.55;;;3.70;;
59042;SDS011;44826;51.596;5.624;2022-10-10T05:45:14;8.32;;;3.90;;
59042;SDS011;44826;51.596;5.624;2022-10-10T05:47:40;6.38;;;3.58;;
59042;SDS011;44826;51.596;5.624;2022-10-10T05:50:05;6.80;;;3.50;;
59042;SDS011;44826;51.596;5.624;2022-10-10T05:52:32;6.53;;;3.88;;
59042;SDS011;44826;51.596;5.624;2022-10-10T05:54:59;7.55;;;4.05;;
59042;SDS011;44826;51.596;5.624;2022-10-10T05:57:24;6.22;;;3.70;;
59042;SDS011;44826;51.596;5.624;2022-10-10T05:59:49;5.50;;;3.85;;
59042;SDS011;44826;51.596;5.624;2022-10-10T06:02:15;5.95;;;3.60;;
59042;SDS011;44826;51.596;5.624;2022-10-10T06:04:40;5.63;;;3.50;;
59042;SDS011;44826;51.596;5.624;2022-10-10T06:07:05;6.75;;;3.88;;
59042;SDS011;44826;51.596;5.624;2022-10-10T06:09:30;8.07;;;3.80;;
59042;SDS011;44826;51.596;5.624;2022-10-10T06:11:56;6.97;;;3.90;;
59042;SDS011;44826;51.596;5.624;2022-10-10T06:14:21;7.32;;;3.97;;
59042;SDS011;44826;51.596;5.624;2022-10-10T06:16:46;9.05;;;4.00;;
59042;SDS011;44826;51.596;5.624;2022-10-10T06:19:11;5.85;;;3.83;;
59042;SDS011;44826;51.596;5.624;2022-10-10T06:21:37;6.30;;;3.63;;
59042;SDS011;44826;51.596;5.624;2022-10-10T06:24:02;7.20;;;3.78;;
59042;SDS011;44826;51.596;5.624;2022-10-10T06:26:27;7.63;;;4.20;;
59042;SDS011;44826;51.596;5.624;2022-10-10T06:28:53;7.00;;;3.85;;
59042;SDS011;44826;51.596;5.624;2022-10-10T06:31:18;5.63;;;3.90;;
59042;SDS011;44826;51.596;5.624;2022-10-10T06:33:44;6.03;;;3.45;;
59042;SDS011;44826;51.596;5.624;2022-10-10T06:36:10;5.80;;;3.60;;
59042;SDS011;44826;51.596;5.624;2022-10-10T06:38:37;9.00;;;3.70;;
59042;SDS011;44826;51.596;5.624;2022-10-10T06:41:04;6.05;;;3.83;;
59042;SDS011;44826;51.596;5.624;2022-10-10T06:43:30;9.35;;;4.07;;
59042;SDS011;44826;51.596;5.624;2022-10-10T06:45:56;6.15;;;3.92;;
59042;SDS011;44826;51.596;5.624;2022-10-10T06:48:23;5.75;;;3.65;;
59042;SDS011;44826;51.596;5.624;2022-10-10T06:50:55;7.13;;;3.65;;
59042;SDS011;44826;51.596;5.624;2022-10-10T06:53:39;8.18;;;4.15;;
59042;SDS011;44826;51.596;5.624;2022-10-10T06:56:05;6.18;;;3.95;;
59042;SDS011;44826;51.596;5.624;2022-10-10T06:58:31;5.88;;;3.75;;
59042;SDS011;44826;51.596;5.624;2022-10-10T07:00:58;6.43;;;3.78;;
59042;SDS011;44826;51.596;5.624;2022-10-10T07:03:25;6.32;;;3.58;;
59042;SDS011;44826;51.596;5.624;2022-10-10T07:05:52;6.97;;;3.85;;
59042;SDS011;44826;51.596;5.624;2022-10-10T07:08:20;10.60;;;4.22;;
59042;SDS011;44826;51.596;5.624;2022-10-10T07:10:45;10.30;;;4.63;;
59042;SDS011;44826;51.596;5.624;2022-10-10T07:13:11;9.20;;;4.53;;
59042;SDS011;44826;51.596;5.624;2022-10-10T07:15:37;8.52;;;4.57;;
59042;SDS011;44826;51.596;5.624;2022-10-10T07:18:02;8.25;;;4.70;;
59042;SDS011;44826;51.596;5.624;2022-10-10T07:20:27;7.40;;;4.60;;
59042;SDS011;44826;51.596;5.624;2022-10-10T07:22:53;8.23;;;4.10;;
59042;SDS011;44826;51.596;5.624;2022-10-10T07:25:18;6.88;;;4.50;;
59042;SDS011;44826;51.596;5.624;2022-10-10T07:27:43;10.02;;;4.43;;
59042;SDS011;44826;51.596;5.624;2022-10-10T07:30:09;6.10;;;4.65;;
59042;SDS011;44826;51.596;5.624;2022-10-10T07:32:34;7.20;;;4.03;;
59042;SDS011;44826;51.596;5.624;2022-10-10T07:35:00;5.53;;;3.83;;
59042;SDS011;44826;51.596;5.624;2022-10-10T07:37:25;8.95;;;4.63;;
59042;SDS011;44826;51.596;5.624;2022-10-10T07:39:53;8.40;;;4.15;;
59042;SDS011;44826;51.596;5.624;2022-10-10T07:42:19;9.77;;;5.10;;
59042;SDS011;44826;51.596;5.624;2022-10-10T07:44:44;6.53;;;4.30;;
59042;SDS011;44826;51.596;5.624;2022-10-10T07:47:09;8.32;;;4.72;;
59042;SDS011;44826;51.596;5.624;2022-10-10T07:49:35;8.43;;;4.05;;
59042;SDS011;44826;51.596;5.624;2022-10-10T07:52:00;7.60;;;4.22;;
59042;SDS011;44826;51.596;5.624;2022-10-10T07:54:25;10.88;;;4.35;;
59042;SDS011;44826;51.596;5.624;2022-10-10T07:56:51;8.13;;;4.10;;
59042;SDS011;44826;51.596;5.624;2022-10-10T07:59:16;7.35;;;4.40;;
59042;SDS011;44826;51.596;5.624;2022-10-10T08:01:41;8.35;;;4.72;;
59042;SDS011;44826;51.596;5.624;2022-10-10T08:04:06;6.88;;;4.22;;
59042;SDS011;44826;51.596;5.624;2022-10-10T08:06:32;7.07;;;3.97;;
59042;SDS011;44826;51.596;5.624;2022-10-10T08:08:57;6.90;;;4.05;;
59042;SDS011;44826;51.596;5.624;2022-10-10T08:11:22;6.15;;;3.88;;
59042;SDS011;44826;51.596;5.624;2022-10-10T08:13:48;7.28;;;3.72;;
59042;SDS011;44826;51.596;5.624;2022-10-10T08:16:14;7.82;;;3.83;;
59042;SDS011;44826;51.596;5.624;2022-10-10T08:18:40;8.45;;;4.00;;
59042;SDS011;44826;51.596;5.624;2022-10-10T08:21:06;6.28;;;3.70;;
59042;SDS011;44826;51.596;5.624;2022-10-10T08:23:33;6.50;;;3.60;;
59042;SDS011;44826;51.596;5.624;2022-10-10T08:25:59;10.23;;;4.32;;
59042;SDS011;44826;51.596;5.624;2022-10-10T08:28:26;8.57;;;3.95;;
59042;SDS011;44826;51.596;5.624;2022-10-10T08:30:52;8.48;;;3.78;;
59042;SDS011;44826;51.596;5.624;2022-10-10T08:33:18;8.80;;;3.53;;
59042;SDS011;44826;51.596;5.624;2022-10-10T08:35:43;8.50;;;4.03;;
59042;SDS011;44826;51.596;5.624;2022-10-10T08:38:09;8.85;;;4.30;;
59042;SDS011;44826;51.596;5.624;2022-10-10T08:40:44;7.85;;;4.10;;
59042;SDS011;44826;51.596;5.624;2022-10-10T08:43:20;6.95;;;4.07;;
59042;SDS011;44826;51.596;5.624;2022-10-10T08:45:53;6.15;;;3.65;;
59042;SDS011;44826;51.596;5.624;2022-10-10T08:48:22;7.25;;;3.67;;
59042;SDS011;44826;51.596;5.624;2022-10-10T08:50:54;6.75;;;3.78;;
59042;SDS011;44826;51.596;5.624;2022-10-10T08:53:26;7.30;;;3.78;;
59042;SDS011;44826;51.596;5.624;2022-10-10T08:55:56;7.00;;;3.53;;
59042;SDS011;44826;51.596;5.624;2022-10-10T09:00:58;6.32;;;3.35;;
59042;SDS011;44826;51.596;5.624;2022-10-10T09:03:27;8.45;;;3.67;;
59042;SDS011;44826;51.596;5.624;2022-10-10T09:14:34;5.85;;;3.20;;
59042;SDS011;44826;51.596;5.624;2022-10-10T09:19:41;12.75;;;3.67;;
59042;SDS011;44826;51.596;5.624;2022-10-10T09:22:11;6.13;;;3.42;;
59042;SDS011;44826;51.596;5.624;2022-10-10T09:25:25;7.25;;;3.90;;
59042;SDS011;44826;51.596;5.624;2022-10-10T09:27:33;8.27;;;3.58;;
59042;SDS011;44826;51.596;5.624;2022-10-10T09:30:14;9.02;;;3.65;;
59042;SDS011;44826;51.596;5.624;2022-10-10T09:32:54;6.55;;;3.40;;
59042;SDS011;44826;51.596;5.624;2022-10-10T09:35:27;6.50;;;3.42;;
59042;SDS011;44826;51.596;5.624;2022-10-10T09:40:54;7.60;;;3.55;;
59042;SDS011;44826;51.596;5.624;2022-10-10T09:43:22;9.38;;;3.88;;
59042;SDS011;44826;51.596;5.624;2022-10-10T09:45:55;9.52;;;3.58;;
59042;SDS011;44826;51.596;5.624;2022-10-10T09:48:21;9.48;;;3.92;;
59042;SDS011;44826;51.596;5.624;2022-10-10T09:50:51;7.25;;;3.60;;
59042;SDS011;44826;51.596;5.624;2022-10-10T09:53:16;7.90;;;3.88;;
59042;SDS011;44826;51.596;5.624;2022-10-10T09:55:42;6.63;;;3.97;;
59042;SDS011;44826;51.596;5.624;2022-10-10T09:58:19;11.07;;;3.70;;
59042;SDS011;44826;51.596;5.624;2022-10-10T10:00:49;11.10;;;3.72;;
59042;SDS011;44826;51.596;5.624;2022-10-10T10:03:16;7.07;;;3.20;;
59042;SDS011;44826;51.596;5.624;2022-10-10T10:05:44;6.60;;;3.38;;
59042;SDS011;44826;51.596;5.624;2022-10-10T10:08:22;5.88;;;3.35;;
59042;SDS011;44826;51.596;5.624;2022-10-10T10:10:52;6.90;;;3.40;;
59042;SDS011;44826;51.596;5.624;2022-10-10T10:13:23;6.05;;;3.03;;
59042;SDS011;44826;51.596;5.624;2022-10-10T10:15:55;5.78;;;3.20;;
59042;SDS011;44826;51.596;5.624;2022-10-10T10:18:25;6.60;;;2.83;;
59042;SDS011;44826;51.596;5.624;2022-10-10T10:25:56;7.07;;;2.92;;
59042;SDS011;44826;51.596;5.624;2022-10-10T10:28:26;7.13;;;3.00;;
59042;SDS011;44826;51.596;5.624;2022-10-10T10:30:52;6.13;;;2.80;;
59042;SDS011;44826;51.596;5.624;2022-10-10T10:33:23;6.82;;;2.90;;
59042;SDS011;44826;51.596;5.624;2022-10-10T10:41:53;6.20;;;2.70;;
59042;SDS011;44826;51.596;5.624;2022-10-10T10:44:30;8.02;;;2.70;;
59042;SDS011;44826;51.596;5.624;2022-10-10T10:47:09;7.70;;;2.53;;
59042;SDS011;44826;51.596;5.624;2022-10-10T10:55:48;4.55;;;2.80;;
59042;SDS011;44826;51.596;5.624;2022-10-10T11:01:25;5.55;;;2.50;;
59042;SDS011;44826;51.596;5.624;2022-10-10T11:04:00;7.72;;;2.90;;
59042;SDS011;44826;51.596;5.624;2022-10-10T11:09:19;7.10;;;2.90;;
59042;SDS011;44826;51.596;5.624;2022-10-10T11:11:59;6.90;;;2.67;;
59042;SDS011;44826;51.596;5.624;2022-10-10T11:14:42;6.70;;;3.17;;
59042;SDS011;44826;51.596;5.624;2022-10-10T11:19:49;8.30;;;3.50;;
59042;SDS011;44826;51.596;5.624;2022-10-10T11:22:24;5.90;;;2.72;;
59042;SDS011;44826;51.596;5.624;2022-10-10T11:24:53;5.77;;;2.73;;
59042;SDS011;44826;51.596;5.624;2022-10-10T11:30:53;8.35;;;3.45;;
59042;SDS011;44826;51.596;5.624;2022-10-10T11:33:27;6.55;;;3.00;;
59042;SDS011;44826;51.596;5.624;2022-10-10T11:39:10;8.00;;;3.38;;
59042;SDS011;44826;51.596;5.624;2022-10-10T11:41:36;10.73;;;3.60;;
59042;SDS011;44826;51.596;5.624;2022-10-10T11:46:42;7.32;;;3.22;;
59042;SDS011;44826;51.596;5.624;2022-10-10T11:49:22;7.78;;;3.63;;
59042;SDS011;44826;51.596;5.624;2022-10-10T11:54:21;6.22;;;3.22;;
59042;SDS011;44826;51.596;5.624;2022-10-10T11:57:08;7.30;;;3.03;;
59042;SDS011;44826;51.596;5.624;2022-10-10T11:59:51;6.07;;;3.13;;
59042;SDS011;44826;51.596;5.624;2022-10-10T12:02:25;7.65;;;3.42;;
59042;SDS011;44826;51.596;5.624;2022-10-10T12:04:55;6.97;;;2.72;;
59042;SDS011;44826;51.596;5.624;2022-10-10T12:07:22;6.70;;;3.33;;
59042;SDS011;44826;51.596;5.624;2022-10-10T12:09:56;8.90;;;3.05;;
59042;SDS011;44826;51.596;5.624;2022-10-10T12:12:28;7.13;;;3.33;;
59042;SDS011;44826;51.596;5.624;2022-10-10T12:14:59;7.40;;;3.28;;
59042;SDS011;44826;51.596;5.624;2022-10-10T12:17:28;8.68;;;3.40;;
59042;SDS011;44826;51.596;5.624;2022-10-10T12:20:07;6.28;;;3.50;;
59042;SDS011;44826;51.596;5.624;2022-10-10T12:22:34;9.23;;;3.75;;
59042;SDS011;44826;51.596;5.624;2022-10-10T12:30:27;7.00;;;3.30;;
59042;SDS011;44826;51.596;5.624;2022-10-10T12:32:53;7.03;;;3.10;;
59042;SDS011;44826;51.596;5.624;2022-10-10T12:40:29;12.25;;;3.70;;
59042;SDS011;44826;51.596;5.624;2022-10-10T12:47:55;8.30;;;3.22;;
59042;SDS011;44826;51.596;5.624;2022-10-10T12:50:23;9.73;;;3.45;;
59042;SDS011;44826;51.596;5.624;2022-10-10T12:52:55;7.22;;;3.40;;
59042;SDS011;44826;51.596;5.624;2022-10-10T12:55:24;6.53;;;3.22;;
59042;SDS011;44826;51.596;5.624;2022-10-10T12:57:51;7.43;;;3.20;;
59042;SDS011;44826;51.596;5.624;2022-10-10T13:00:23;9.25;;;3.35;;
59042;SDS011;44826;51.596;5.624;2022-10-10T13:02:54;6.50;;;3.05;;
59042;SDS011;44826;51.596;5.624;2022-10-10T13:05:28;8.77;;;3.17;;
59042;SDS011;44826;51.596;5.624;2022-10-10T13:08:02;7.22;;;3.22;;
59042;SDS011;44826;51.596;5.624;2022-10-10T13:10:31;6.70;;;3.20;;
59042;SDS011;44826;51.596;5.624;2022-10-10T13:13:18;5.78;;;2.80;;
59042;SDS011;44826;51.596;5.624;2022-10-10T13:15:50;5.45;;;2.83;;
59042;SDS011;44826;51.596;5.624;2022-10-10T13:23:29;7.32;;;3.20;;
59042;SDS011;44826;51.596;5.624;2022-10-10T13:25:54;8.80;;;3.50;;
59042;SDS011;44826;51.596;5.624;2022-10-10T13:28:20;8.77;;;3.80;;
59042;SDS011;44826;51.596;5.624;2022-10-10T13:30:46;9.73;;;4.03;;
59042;SDS011;44826;51.596;5.624;2022-10-10T13:33:15;8.90;;;3.88;;
59042;SDS011;44826;51.596;5.624;2022-10-10T13:35:42;9.68;;;3.88;;
59042;SDS011;44826;51.596;5.624;2022-10-10T13:38:10;8.77;;;3.97;;
59042;SDS011;44826;51.596;5.624;2022-10-10T13:40:38;8.13;;;3.72;;
59042;SDS011;44826;51.596;5.624;2022-10-10T13:43:10;10.55;;;4.28;;
59042;SDS011;44826;51.596;5.624;2022-10-10T13:45:43;12.15;;;4.10;;
59042;SDS011;44826;51.596;5.624;2022-10-10T13:53:28;12.70;;;4.45;;
59042;SDS011;44826;51.596;5.624;2022-10-10T13:58:49;6.60;;;3.70;;
59042;SDS011;44826;51.596;5.624;2022-10-10T14:01:19;7.55;;;3.60;;
59042;SDS011;44826;51.596;5.624;2022-10-10T14:03:45;7.68;;;3.00;;
59042;SDS011;44826;51.596;5.624;2022-10-10T14:06:16;7.85;;;3.45;;
59042;SDS011;44826;51.596;5.624;2022-10-10T14:08:48;7.13;;;3.08;;
59042;SDS011;44826;51.596;5.624;2022-10-10T14:11:16;6.55;;;2.45;;
59042;SDS011;44826;51.596;5.624;2022-10-10T14:13:46;5.82;;;2.25;;
59042;SDS011;44826;51.596;5.624;2022-10-10T14:18:44;7.40;;;2.67;;
59042;SDS011;44826;51.596;5.624;2022-10-10T14:21:09;5.82;;;2.33;;
59042;SDS011;44826;51.596;5.624;2022-10-10T14:23:35;8.82;;;3.17;;
59042;SDS011;44826;51.596;5.624;2022-10-10T14:26:01;7.60;;;3.35;;
59042;SDS011;44826;51.596;5.624;2022-10-10T14:28:29;7.82;;;3.22;;
59042;SDS011;44826;51.596;5.624;2022-10-10T14:30:56;5.07;;;2.80;;
59042;SDS011;44826;51.596;5.624;2022-10-10T14:33:21;5.70;;;2.88;;
59042;SDS011;44826;51.596;5.624;2022-10-10T14:35:48;5.10;;;2.55;;
59042;SDS011;44826;51.596;5.624;2022-10-10T14:38:15;5.82;;;2.90;;
59042;SDS011;44826;51.596;5.624;2022-10-10T14:40:41;4.53;;;2.45;;
59042;SDS011;44826;51.596;5.624;2022-10-10T14:43:07;6.30;;;2.75;;
59042;SDS011;44826;51.596;5.624;2022-10-10T14:45:32;4.97;;;2.65;;
59042;SDS011;44826;51.596;5.624;2022-10-10T14:47:58;7.10;;;2.65;;
59042;SDS011;44826;51.596;5.624;2022-10-10T14:50:27;5.18;;;2.70;;
59042;SDS011;44826;51.596;5.624;2022-10-10T14:52:57;7.72;;;2.50;;
59042;SDS011;44826;51.596;5.624;2022-10-10T14:55:22;5.43;;;2.70;;
59042;SDS011;44826;51.596;5.624;2022-10-10T14:57:48;7.00;;;3.03;;
59042;SDS011;44826;51.596;5.624;2022-10-10T15:00:14;5.57;;;2.65;;
59042;SDS011;44826;51.596;5.624;2022-10-10T15:02:41;5.32;;;2.75;;
59042;SDS011;44826;51.596;5.624;2022-10-10T15:05:07;7.35;;;2.95;;
59042;SDS011;44826;51.596;5.624;2022-10-10T15:07:32;6.82;;;3.35;;
59042;SDS011;44826;51.596;5.624;2022-10-10T15:09:57;4.70;;;2.55;;
59042;SDS011;44826;51.596;5.624;2022-10-10T15:12:23;4.97;;;2.20;;
59042;SDS011;44826;51.596;5.624;2022-10-10T15:14:48;2.88;;;1.50;;
59042;SDS011;44826;51.596;5.624;2022-10-10T15:17:13;2.70;;;1.13;;
59042;SDS011;44826;51.596;5.624;2022-10-10T15:19:38;0.80;;;0.60;;
59042;SDS011;44826;51.596;5.624;2022-10-10T15:22:04;1.05;;;0.40;;
59042;SDS011;44826;51.596;5.624;2022-10-10T15:24:29;0.88;;;0.40;;
59042;SDS011;44826;51.596;5.624;2022-10-10T15:26:54;0.30;;;0.30;;
59042;SDS011;44826;51.596;5.624;2022-10-10T15:29:20;0.28;;;0.20;;
59042;SDS011;44826;51.596;5.624;2022-10-10T15:31:45;0.20;;;0.20;;
59042;SDS011;44826;51.596;5.624;2022-10-10T15:34:10;0.40;;;0.30;;
59042;SDS011;44826;51.596;5.624;2022-10-10T15:36:35;0.30;;;0.20;;
59042;SDS011;44826;51.596;5.624;2022-10-10T15:39:04;0.75;;;0.30;;
59042;SDS011;44826;51.596;5.624;2022-10-10T15:41:29;1.70;;;0.30;;
59042;SDS011;44826;51.596;5.624;2022-10-10T15:43:54;0.57;;;0.30;;
59042;SDS011;44826;51.596;5.624;2022-10-10T15:46:23;0.38;;;0.30;;
59042;SDS011;44826;51.596;5.624;2022-10-10T15:48:51;1.98;;;0.40;;
59042;SDS011;44826;51.596;5.624;2022-10-10T15:51:16;2.08;;;0.43;;
59042;SDS011;44826;51.596;5.624;2022-10-10T15:53:42;2.83;;;0.50;;
59042;SDS011;44826;51.596;5.624;2022-10-10T15:56:08;1.10;;;0.50;;
59042;SDS011;44826;51.596;5.624;2022-10-10T15:58:35;2.45;;;0.55;;
59042;SDS011;44826;51.596;5.624;2022-10-10T16:01:11;4.28;;;0.60;;
59042;SDS011;44826;51.596;5.624;2022-10-10T16:03:37;2.15;;;0.55;;
59042;SDS011;44826;51.596;5.624;2022-10-10T16:06:04;3.10;;;0.52;;
59042;SDS011;44826;51.596;5.624;2022-10-10T16:08:29;4.53;;;0.90;;
59042;SDS011;44826;51.596;5.624;2022-10-10T16:10:55;2.67;;;0.60;;
59042;SDS011;44826;51.596;5.624;2022-10-10T16:13:20;1.92;;;0.55;;
59042;SDS011;44826;51.596;5.624;2022-10-10T16:15:55;3.28;;;0.85;;
59042;SDS011;44826;51.596;5.624;2022-10-10T16:18:21;5.15;;;0.77;;
59042;SDS011;44826;51.596;5.624;2022-10-10T16:20:47;3.15;;;0.80;;
59042;SDS011;44826;51.596;5.624;2022-10-10T16:23:12;4.68;;;0.90;;
59042;SDS011;44826;51.596;5.624;2022-10-10T16:25:38;5.90;;;1.00;;
59042;SDS011;44826;51.596;5.624;2022-10-10T16:28:03;2.92;;;0.90;;
59042;SDS011;44826;51.596;5.624;2022-10-10T16:30:28;3.90;;;0.77;;
59042;SDS011;44826;51.596;5.624;2022-10-10T16:32:54;3.60;;;0.80;;
59042;SDS011;44826;51.596;5.624;2022-10-10T16:35:19;4.13;;;0.85;;
59042;SDS011;44826;51.596;5.624;2022-10-10T16:37:44;2.92;;;0.85;;
59042;SDS011;44826;51.596;5.624;2022-10-10T16:40:09;4.25;;;0.75;;
59042;SDS011;44826;51.596;5.624;2022-10-10T16:42:35;6.10;;;1.02;;
59042;SDS011;44826;51.596;5.624;2022-10-10T16:45:00;5.88;;;1.20;;
59042;SDS011;44826;51.596;5.624;2022-10-10T16:47:26;5.75;;;1.00;;